createdAt,value
2023-03-03T00:01:19.578Z,0.46
2023-03-03T00:06:15.933Z,0.44
2023-03-03T00:11:12.477Z,0.50
2023-03-03T00:16:25.475Z,0.40
2023-03-03T00:21:41.825Z,0.44
2023-03-03T00:26:39.953Z,0.45
2023-03-03T00:31:36.540Z,0.37
2023-03-03T00:36:40.700Z,0.34
2023-03-03T00:41:37.973Z,0.30
2023-03-03T00:46:37.081Z,0.29
2023-03-03T00:51:36.002Z,0.40
2023-03-03T00:56:32.474Z,0.32
2023-03-03T01:01:28.796Z,0.35
2023-03-03T01:06:25.166Z,0.35
2023-03-03T01:11:24.551Z,0.27
2023-03-03T01:16:21.497Z,0.33
2023-03-03T01:21:18.507Z,0.34
2023-03-03T01:26:15.074Z,0.36
2023-03-03T01:31:12.684Z,0.28
2023-03-03T01:36:09.321Z,0.32
2023-03-03T01:41:06.111Z,0.31
2023-03-03T01:46:02.371Z,0.29
2023-03-03T01:51:32.358Z,0.24
2023-03-03T01:56:29.450Z,0.26
2023-03-03T02:01:28.498Z,0.29
2023-03-03T02:06:35.431Z,0.24
2023-03-03T02:11:34.547Z,0.31
2023-03-03T02:16:31.101Z,0.25
2023-03-03T02:21:28.073Z,0.14
2023-03-03T02:26:27.138Z,0.14
2023-03-03T02:31:27.155Z,0.14
2023-03-03T02:36:26.685Z,0.12
2023-03-03T02:41:41.082Z,0.12
2023-03-03T02:46:43.103Z,0.08
2023-03-03T02:51:40.483Z,0.08
2023-03-03T02:56:37.084Z,0.13
2023-03-03T03:01:37.014Z,0.11
2023-03-03T03:06:33.565Z,0.07
2023-03-03T03:11:29.870Z,0.11
2023-03-03T03:16:26.334Z,0.08
2023-03-03T03:21:22.999Z,0.07
2023-03-03T03:26:21.046Z,-0.02
2023-03-03T03:31:18.733Z,-0.06
2023-03-03T03:36:15.483Z,-0.12
2023-03-03T03:41:13.358Z,-0.03
2023-03-03T03:46:09.678Z,0.00
2023-03-03T03:51:06.048Z,0.08
2023-03-03T03:56:02.370Z,-0.12
2023-03-03T04:01:07.152Z,-0.11
2023-03-03T04:06:03.822Z,-0.14
2023-03-03T04:11:00.118Z,-0.14
2023-03-03T04:15:56.407Z,-0.26
2023-03-03T04:20:54.403Z,-0.31
2023-03-03T04:25:50.920Z,-0.31
2023-03-03T04:30:47.580Z,-0.38
2023-03-03T04:35:43.966Z,-0.32
2023-03-03T04:40:41.729Z,-0.29
2023-03-03T04:45:38.206Z,-0.32
2023-03-03T04:50:34.887Z,-0.33
2023-03-03T04:55:31.353Z,-0.31
2023-03-03T05:00:27.676Z,-0.27
2023-03-03T05:05:24.047Z,-0.23
2023-03-03T05:10:21.455Z,-0.27
2023-03-03T05:15:17.922Z,-0.34
2023-03-03T05:20:14.604Z,-0.47
2023-03-03T05:25:12.567Z,-0.42
2023-03-03T05:30:10.048Z,-0.47
2023-03-03T05:35:06.762Z,-0.47
2023-03-03T05:40:04.330Z,-0.45
2023-03-03T05:45:00.631Z,-0.53
2023-03-03T05:49:57.392Z,-0.59
2023-03-03T05:54:53.785Z,-0.70
2023-03-03T05:59:50.148Z,-0.72
2023-03-03T06:04:46.450Z,-0.75
2023-03-03T06:09:42.831Z,-0.78
2023-03-03T06:14:39.120Z,-0.85
2023-03-03T06:19:36.044Z,-0.87
2023-03-03T06:24:32.318Z,-0.90
2023-03-03T06:29:29.025Z,-0.78
2023-03-03T06:34:25.391Z,-0.80
2023-03-03T06:39:21.674Z,-0.76
2023-03-03T06:44:18.248Z,-0.54
2023-03-03T06:49:14.846Z,-0.49
2023-03-03T06:54:26.486Z,-0.83
2023-03-03T06:59:23.885Z,-0.87
2023-03-03T07:04:33.154Z,-0.83
2023-03-03T07:09:30.037Z,-0.67
2023-03-03T07:14:26.512Z,-0.55
2023-03-03T07:19:33.477Z,-0.56
2023-03-03T07:24:31.266Z,-0.40
2023-03-03T07:29:33.641Z,-0.54
2023-03-03T07:34:59.159Z,-0.53
2023-03-03T07:39:55.924Z,-0.34
2023-03-03T07:44:54.795Z,-0.07
2023-03-03T07:49:53.530Z,-0.07
2023-03-03T07:54:49.964Z,-0.08
2023-03-03T07:59:51.632Z,0.12
2023-03-03T08:04:52.666Z,0.18
2023-03-03T08:09:51.566Z,0.26
2023-03-03T08:14:48.016Z,0.31
2023-03-03T08:19:44.376Z,0.46
2023-03-03T08:24:41.211Z,0.52
2023-03-03T08:29:37.638Z,0.48
2023-03-03T08:34:33.954Z,0.29
2023-03-03T08:39:30.249Z,0.58
2023-03-03T08:44:26.548Z,0.62
2023-03-03T08:49:22.863Z,0.79
2023-03-03T08:54:19.169Z,0.84
2023-03-03T08:59:15.574Z,1.20
2023-03-03T09:04:11.951Z,1.43
2023-03-03T09:09:08.409Z,1.63
2023-03-03T09:14:13.478Z,1.67
2023-03-03T09:19:22.172Z,1.77
2023-03-03T09:24:25.467Z,1.95
2023-03-03T09:29:29.209Z,1.97
2023-03-03T09:34:38.180Z,1.99
2023-03-03T09:39:36.649Z,2.30
2023-03-03T09:45:08.620Z,2.51
2023-03-03T09:50:22.647Z,2.86
2023-03-03T09:55:37.743Z,3.07
2023-03-03T10:01:03.866Z,3.27
2023-03-03T10:06:21.802Z,3.32
2023-03-03T10:11:28.379Z,3.33
2023-03-03T10:16:43.250Z,2.26
2023-03-03T10:21:49.591Z,1.68
2023-03-03T10:27:12.066Z,1.58
2023-03-03T10:32:09.743Z,1.73
2023-03-03T10:37:40.661Z,2.30
2023-03-03T10:42:53.166Z,2.95
2023-03-03T10:48:34.044Z,3.25
2023-03-03T10:53:42.429Z,3.81
2023-03-03T10:58:45.613Z,4.37
2023-03-03T11:03:51.859Z,4.90
2023-03-03T11:08:58.719Z,4.21
2023-03-03T11:14:12.158Z,3.64
2023-03-03T11:19:36.130Z,2.55
2023-03-03T11:25:03.546Z,2.70
2023-03-03T11:30:18.326Z,3.47
2023-03-03T11:35:43.828Z,3.05
2023-03-03T11:41:22.265Z,3.09
2023-03-03T11:46:25.555Z,2.55
2023-03-03T11:51:38.926Z,2.78
2023-03-03T11:56:43.767Z,2.73
2023-03-03T12:02:13.914Z,3.03
2023-03-03T12:07:32.936Z,3.08
2023-03-03T12:12:38.257Z,3.96
2023-03-03T12:17:56.863Z,4.43
2023-03-03T12:23:05.850Z,3.94
2023-03-03T12:28:09.406Z,3.16
2023-03-03T12:33:39.321Z,2.97
2023-03-03T12:39:09.756Z,3.28
2023-03-03T12:44:34.112Z,3.08
2023-03-03T12:49:57.823Z,3.53
2023-03-03T12:55:11.057Z,4.04
2023-03-03T13:00:21.726Z,4.24
2023-03-03T13:05:23.967Z,3.92
2023-03-03T13:10:36.396Z,4.20
2023-03-03T13:15:51.787Z,4.09
2023-03-03T13:21:00.031Z,3.65
2023-03-03T13:26:03.165Z,3.67
2023-03-03T13:31:13.510Z,3.74
2023-03-03T13:36:15.240Z,3.83
2023-03-03T13:41:23.584Z,3.57
2023-03-03T13:46:43.569Z,3.88
2023-03-03T13:52:01.637Z,3.90
2023-03-03T13:57:30.404Z,3.88
2023-03-03T14:02:33.155Z,3.44
2023-03-03T14:07:41.388Z,3.86
2023-03-03T14:12:48.409Z,3.65
2023-03-03T14:18:23.562Z,3.96
2023-03-03T14:23:25.616Z,3.64
2023-03-03T14:28:28.386Z,3.49
2023-03-03T14:33:32.272Z,3.59
2023-03-03T14:38:31.727Z,3.17
2023-03-03T14:43:38.212Z,3.28
2023-03-03T14:48:50.960Z,3.08
2023-03-03T14:53:50.084Z,2.99
2023-03-03T14:58:46.968Z,2.98
2023-03-03T15:04:03.416Z,3.21
2023-03-03T15:09:35.843Z,3.10
2023-03-03T15:14:43.299Z,3.22
2023-03-03T15:20:11.700Z,3.29
2023-03-03T15:25:43.277Z,3.49
2023-03-03T15:30:53.457Z,3.51
2023-03-03T15:36:02.021Z,3.44
2023-03-03T15:41:21.851Z,3.26
2023-03-03T15:46:42.946Z,3.34
2023-03-03T15:52:13.399Z,3.44
2023-03-03T15:57:21.028Z,3.22
2023-03-03T16:02:21.375Z,3.25
2023-03-03T16:07:31.946Z,3.06
2023-03-03T16:12:49.998Z,2.87
2023-03-03T16:18:14.244Z,2.88
2023-03-03T16:23:39.837Z,2.83
2023-03-03T16:29:05.183Z,2.82
2023-03-03T16:34:12.707Z,2.90
2023-03-03T16:39:21.272Z,2.85
2023-03-03T16:44:38.372Z,2.76
2023-03-03T16:49:47.073Z,2.63
2023-03-03T16:55:12.928Z,2.46
2023-03-03T17:00:17.183Z,2.33
2023-03-03T17:05:39.767Z,2.20
2023-03-03T17:10:52.240Z,2.09
2023-03-03T17:15:59.787Z,2.09
2023-03-03T17:21:01.225Z,1.92
2023-03-03T17:26:17.991Z,1.82
2023-03-03T17:31:32.845Z,1.77
2023-03-03T17:36:50.925Z,1.76
2023-03-03T17:42:10.206Z,1.58
2023-03-03T17:47:16.563Z,1.59
2023-03-03T17:52:46.178Z,1.56
2023-03-03T17:57:49.579Z,1.43
2023-03-03T18:03:19.974Z,1.36
2023-03-03T18:08:34.751Z,1.39
2023-03-03T18:13:50.482Z,1.59
2023-03-03T18:19:17.502Z,1.59
2023-03-03T18:24:26.145Z,1.62
2023-03-03T18:29:27.948Z,1.56
2023-03-03T18:34:40.667Z,1.61
2023-03-03T18:39:44.554Z,1.53
2023-03-03T18:44:41.747Z,1.54
2023-03-03T18:49:47.255Z,1.84
2023-03-03T18:54:43.614Z,1.97
2023-03-03T18:59:48.597Z,1.95
2023-03-03T19:04:55.470Z,1.80
2023-03-03T19:10:01.499Z,1.74
2023-03-03T19:14:57.866Z,1.85
2023-03-03T19:20:14.100Z,2.03
2023-03-03T19:25:19.316Z,2.10
2023-03-03T19:30:29.100Z,2.16
2023-03-03T19:35:53.154Z,2.27
2023-03-03T19:41:40.641Z,2.13
2023-03-03T19:46:58.612Z,2.07
2023-03-03T19:52:08.234Z,2.13
2023-03-03T19:57:11.360Z,2.18
2023-03-03T20:02:13.390Z,2.41
2023-03-03T20:07:29.003Z,2.39
2023-03-03T20:12:50.624Z,2.33
2023-03-03T20:17:58.617Z,2.32
2023-03-03T20:23:07.712Z,2.21
2023-03-03T20:28:45.090Z,2.29
2023-03-03T20:33:52.152Z,2.36
2023-03-03T20:39:09.042Z,2.30
2023-03-03T20:44:11.541Z,2.37
2023-03-03T20:49:31.255Z,2.37
2023-03-03T20:54:56.190Z,2.29
2023-03-03T21:00:20.959Z,2.30
2023-03-03T21:05:20.588Z,2.36
2023-03-03T21:10:24.708Z,2.34
2023-03-03T21:15:25.603Z,2.33
2023-03-03T21:20:40.181Z,2.29
2023-03-03T21:25:45.860Z,2.30
2023-03-03T21:31:11.944Z,2.26
2023-03-03T21:36:09.924Z,2.21
2023-03-03T21:41:08.097Z,2.24
2023-03-03T21:46:05.068Z,2.28
2023-03-03T21:51:02.011Z,2.31
2023-03-03T21:55:58.435Z,2.16
2023-03-03T22:00:54.811Z,2.04
2023-03-03T22:05:51.287Z,2.15
2023-03-03T22:10:50.790Z,2.18
2023-03-03T22:15:48.019Z,2.27
2023-03-03T22:20:46.039Z,2.27
2023-03-03T22:25:42.522Z,2.32
2023-03-03T22:30:38.957Z,2.22
2023-03-03T22:35:35.395Z,2.17
2023-03-03T22:40:33.452Z,2.23
2023-03-03T22:45:29.775Z,2.24
2023-03-03T22:50:26.125Z,2.23
2023-03-03T22:55:22.624Z,2.17
2023-03-03T23:00:20.891Z,2.16
2023-03-03T23:05:17.527Z,2.24
2023-03-03T23:10:14.016Z,2.20
2023-03-03T23:15:13.950Z,2.18
2023-03-03T23:20:13.459Z,2.16
2023-03-03T23:25:11.779Z,2.15
2023-03-03T23:30:09.780Z,2.14
2023-03-03T23:35:06.405Z,2.01
2023-03-03T23:40:02.938Z,2.12
2023-03-03T23:44:59.527Z,2.27
2023-03-03T23:49:55.967Z,2.13
2023-03-03T23:54:53.099Z,2.11
2023-03-03T23:59:49.806Z,2.28
